Flight Track Log - Related Links

Times and Time Zones

All times are in EDT time to prevent confusion due to time zone crossing. See the N6818X flight status page for this flight to view local times or setup timezone preferences in your user account.

Time Position Orientation Groundspeed Altitude Reporting Facility
EDT Latitude Longitude Course Direction KTS MPH feet Rate Location/Type
Tue 08:39:22 PM 33.6167 -117.1000 140° Southeast 132 152 4,200  Level Southern California TRACON
Tue 08:40:22 PM 33.6000 -117.0833 140° Southeast 139 160 4,900 700 Climbing Southern California TRACON
Tue 08:41:22 PM 33.6000 -117.0333 90° East 130 150 5,600 724 Climbing Southern California TRACON
Tue 08:42:18 PM 33.6028 -116.9939 85° East 131 151 6,300 655 Climbing Los Angeles Center
Tue 08:43:21 PM 33.6047 -116.9497 87° East 131 151 6,900 624 Climbing Los Angeles Center
Tue 08:44:23 PM 33.5950 -116.9061 105° East 136 157 7,600 677 Climbing Los Angeles Center
Tue 08:45:25 PM 33.5803 -116.8653 113° Southeast 136 157 8,300 581 Climbing Los Angeles Center
Tue 08:46:27 PM 33.5656 -116.8217 112° Southeast 138 159 8,800 581 Climbing Los Angeles Center
Tue 08:47:29 PM 33.5528 -116.7794 110° East 137 158 9,500 726 Climbing Los Angeles Center
Tue 08:48:31 PM 33.5367 -116.7281 111° Southeast 137 158 10,300 629 Climbing Los Angeles Center
Tue 08:49:33 PM 33.5214 -116.6842 113° Southeast 139 160 10,800 581 Climbing Los Angeles Center
Tue 08:50:35 PM 33.5058 -116.6381 112° Southeast 143 165 11,500 629 Climbing Los Angeles Center
Tue 08:51:37 PM 33.4911 -116.5906 110° East 149 171 12,100 581 Climbing Los Angeles Center
Tue 08:52:39 PM 33.4828 -116.5431 102° East 148 170 12,700 581 Climbing Los Angeles Center
Tue 08:53:41 PM 33.4914 -116.4914 79° East 154 177 13,300 677 Climbing Los Angeles Center
Tue 08:54:43 PM 33.4989 -116.4286 82° East 158 182 14,100 629 Climbing Los Angeles Center
Tue 08:55:45 PM 33.5089 -116.3783 77° East 156 180 14,600 435 Climbing Los Angeles Center
Tue 08:56:47 PM 33.5186 -116.3264 77° East 158 182 15,000 194 Climbing Los Angeles Center
Tue 08:57:49 PM 33.5278 -116.2672 79° East 173 199 15,000  Level Los Angeles Center
Tue 08:58:51 PM 33.5392 -116.2058 77° East 185 213 15,000  Level Los Angeles Center
Tue 08:59:54 PM 33.5497 -116.1461 78° East 184 212 15,000  Level Los Angeles Center
Tue 09:00:55 PM 33.5631 -116.0744 77° East 184 212 15,000  Level Los Angeles Center
Tue 09:01:57 PM 33.5747 -116.0136 77° East 185 213 15,000  Level Los Angeles Center
Tue 09:02:59 PM 33.5844 -115.9539 79° East 184 212 15,000  Level Los Angeles Center
Tue 09:04:01 PM 33.5956 -115.8931 78° East 186 214 15,000  Level Los Angeles Center
Tue 09:05:03 PM 33.6061 -115.8339 78° East 183 211 15,000  Level Los Angeles Center
Tue 09:06:05 PM 33.6150 -115.7731 80° East 183 211 15,000  Level Los Angeles Center
Tue 09:07:07 PM 33.6231 -115.7128 81° East 184 212 15,000  Level Los Angeles Center
Tue 09:08:09 PM 33.6169 -115.6403 96° East 183 211 15,000  Level Los Angeles Center
Tue 09:09:10 PM 33.6156 -115.5794 92° East 182 209 15,000  Level Los Angeles Center
Tue 09:10:12 PM 33.6133 -115.5194 93° East 181 208 15,000  Level Los Angeles Center
Tue 09:11:14 PM 33.6128 -115.4583 91° East 182 209 15,000  Level Los Angeles Center
Tue 09:12:16 PM 33.6108 -115.3986 92° East 181 208 15,000  Level Los Angeles Center
Tue 09:13:18 PM 33.6097 -115.3392 91° East 179 206 15,000  Level Los Angeles Center
Tue 09:14:20 PM 33.6081 -115.2786 92° East 179 206 15,000  Level Los Angeles Center
Tue 09:15:22 PM 33.6067 -115.2064 91° East 181 208 15,000  Level Los Angeles Center
Tue 09:16:23 PM 33.6047 -115.1472 92° East 179 206 15,000  Level Los Angeles Center
Tue 09:17:37 PM 33.6019 -115.0872 93° East 180 207 15,000  Level Los Angeles Center
Tue 09:18:39 PM 33.6006 -115.0161 91° East 179 206 15,000  Level Los Angeles Center
Tue 09:19:41 PM 33.5994 -114.9561 91° East 181 208 15,000  Level Los Angeles Center
Tue 09:20:43 PM 33.5953 -114.8964 95° East 180 207 15,000  Level Los Angeles Center
Tue 09:21:45 PM 33.5944 -114.8236 91° East 182 209 15,000  Level Los Angeles Center
Tue 09:22:46 PM 33.5942 -114.7653 90° East 176 203 15,000  Level Los Angeles Center
Tue 09:23:48 PM 33.5875 -114.7058 98° East 181 208 15,000  Level Los Angeles Center
Tue 09:24:50 PM 33.5819 -114.6478 97° East 177 204 15,000  Level Los Angeles Center
Tue 09:25:51 PM 33.5778 -114.5881 95° East 179 206 15,000  Level Los Angeles Center
Tue 09:26:53 PM 33.5756 -114.5294 93° East 178 205 15,000  Level Los Angeles Center
Tue 09:27:55 PM 33.5722 -114.4708 94° East 178 205 15,000 -48 Level Los Angeles Center
Tue 09:28:57 PM 33.5678 -114.4000 94° East 178 205 14,900 -49 Descending Los Angeles Center
Tue 09:29:58 PM 33.5639 -114.3408 94° East 179 206 14,900  Level Los Angeles Center
Tue 09:31:00 PM 33.5606 -114.2853 94° East 179 206 14,900  Level Los Angeles Center
Tue 09:32:02 PM 33.5561 -114.2250 95° East 180 207 14,900  Level Los Angeles Center
Tue 09:33:04 PM 33.5517 -114.1650 95° East 181 208 14,900  Level Los Angeles Center
Tue 09:34:05 PM 33.5467 -114.1050 96° East 181 208 14,900  Level Los Angeles Center
Tue 09:35:08 PM 33.5431 -114.0317 93° East 180 207 14,900  Level Albuquerque Center
Tue 09:36:10 PM 33.5389 -113.9717 95° East 180 207 14,900  Level Albuquerque Center
Tue 09:37:11 PM 33.5336 -113.9103 96° East 183 211 14,900  Level Albuquerque Center
Tue 09:38:13 PM 33.5297 -113.8494 94° East 182 209 14,900  Level Albuquerque Center
Tue 09:39:14 PM 33.5250 -113.7906 95° East 181 208 14,900  Level Albuquerque Center
Tue 09:40:16 PM 33.5175 -113.7303 98° East 181 208 14,900  Level Albuquerque Center
Tue 09:41:17 PM 33.5142 -113.6694 94° East 181 208 14,900  Level Albuquerque Center
Tue 09:42:18 PM 33.5108 -113.6089 94° East 182 209 14,900 -390 Level Albuquerque Center
Tue 09:43:20 PM 33.5039 -113.5347 96° East 184 212 14,100 -1,268 Descending Albuquerque Center
Tue 09:44:21 PM 33.4953 -113.4611 98° East 199 229 12,300 -1,623 Descending Albuquerque Center
Tue 09:45:22 PM 33.4928 -113.3850 92° East 212 244 10,800 -1,317 Descending Albuquerque Center
Tue 09:46:24 PM 33.4897 -113.3142 93° East 216 249 9,600 -1,171 Descending Albuquerque Center
Tue 09:47:25 PM 33.4853 -113.2419 94° East 217 250 8,400 -1,024 Descending Albuquerque Center
Tue 09:48:27 PM 33.4794 -113.1731 96° East 212 244 7,500 -634 Descending Albuquerque Center
Tue 09:49:28 PM 33.4756 -113.1078 94° East 202 232 7,100 -197 Descending Albuquerque Center
Tue 09:50:29 PM 33.4708 -113.0492 96° East 186 214 7,100  Level Albuquerque Center
Tue 09:51:31 PM 33.4658 -112.9925 96° East 176 203 7,100  Level Albuquerque Center
Tue 09:52:32 PM 33.4614 -112.9264 95° East 168 193 7,100  Level Albuquerque Center
Tue 09:53:33 PM 33.4567 -112.8703 96° East 169 194 7,100 -49 Level Albuquerque Center
Tue 09:54:35 PM 33.4531 -112.8158 95° East 167 192 7,000 -488 Descending Albuquerque Center
Tue 09:55:36 PM 33.4592 -112.7522 83° East 187 215 6,100 -830 Descending Albuquerque Center
Tue 09:56:09 PM 33.4622 -112.7150 84° East 194 223 5,700 -511 Descending Albuquerque Center
Tue 09:57:10 PM 33.4739 -112.6586 76° East 178 205 5,300 -520 Descending Albuquerque Center
Tue 09:58:16 PM 33.4872 -112.5892 77° East 187 215 4,600 -520 Descending Albuquerque Center
Tue 09:59:17 PM 33.4956 -112.5283 81° East 178 205 4,200 -443 Descending Albuquerque Center
Tue 10:00:18 PM 33.5028 -112.4731 81° East 177 204 3,700 -545 Descending Albuquerque Center
Tue 10:01:18 PM 33.5089 -112.4106 83° East 181 208 3,100 -595 Descending Albuquerque Center
Tue 10:02:19 PM 33.5156 -112.3528 82° East 174 200 2,500 -397 Descending Albuquerque Center
Tue 10:03:19 PM 33.5450 -112.3147 47° Northeast 164 189 2,300 -267 Descending Albuquerque Center
Tue 10:03:49 PM 33.5606 -112.3019 34° Northeast 158 182 2,100 -689 Descending Albuquerque Center
Tue 10:04:20 PM 33.5567 -112.2836 104° East 113 130 1,600 -689 Descending Albuquerque Center
Tue 10:04:50 PM 33.5467 -112.2819 172° South 117 135 1,400 -393 Descending Albuquerque Center
Tue 10:05:21 PM 33.5325 -112.2922 211° Southwest 74 85 1,200 -97 Descending Albuquerque Center
Tue 10:05:52 PM 33.5178 -112.2939 185° South 108 124 1,300 194 Climbing Albuquerque Center

Login

Don't have an account? Register now (free) for customized features, flight alerts, and more!